Time;durP1;ratioP1;P1;durP2;ratioP2;P2;SDS_P1;SDS_P2;PMS_P1;PMS_P2;Temp;Humidity;BMP_temperature;BMP_pressure;BME280_temperature;BME280_humidity;BME280_pressure;Samples;Min_cycle;Max_cycle;Signal;HPM_P1;HPM_P2
2022/10/20 00:00:53;;;;;;;;;;;16.20;95.00;;;;;;5059646;28;19959;-56
2022/10/20 00:03:19;;;;;;;;;;;16.20;95.20;;;;;;5058488;28;19955;-56
2022/10/20 00:05:45;;;;;;;;;;;16.20;95.20;;;;;;5059569;28;19917;-56
2022/10/20 00:08:10;;;;;;;;;;;16.20;95.20;;;;;;5059531;28;20380;-56
2022/10/20 00:10:36;;;;;;;;;;;16.20;95.70;;;;;;5059204;28;19939;-56
2022/10/20 00:13:02;;;;;;;;;;;16.20;95.20;;;;;;5059607;28;19916;-55
2022/10/20 00:15:27;;;;;;;;;;;16.20;95.20;;;;;;5059605;28;20019;-56
2022/10/20 00:17:53;;;;;;;;;;;16.20;95.60;;;;;;5059339;28;20462;-56
2022/10/20 00:20:18;;;;;;;;;;;16.20;95.90;;;;;;5059444;28;19913;-56
2022/10/20 00:22:44;;;;;;;;;;;16.10;95.90;;;;;;5059411;28;19909;-56
2022/10/20 00:25:10;;;;;;;;;;;16.20;95.50;;;;;;5058982;28;20429;-56
2022/10/20 00:27:35;;;;;;;;;;;16.10;95.40;;;;;;5059172;28;19996;-56
2022/10/20 00:30:01;;;;;;;;;;;16.10;95.50;;;;;;5059267;28;20448;-56
2022/10/20 00:32:28;;;;;;;;;;;16.10;95.80;;;;;;5059234;28;19916;-56
2022/10/20 00:34:54;;;;;;;;;;;16.10;95.80;;;;;;5059063;28;19909;-56
2022/10/20 00:37:19;;;;;;;;;;;16.10;95.90;;;;;;5058946;28;19978;-56
2022/10/20 00:39:45;;;;;;;;;;;16.10;95.60;;;;;;5059156;28;19908;-56
2022/10/20 00:42:14;;;;;;;;;;;16.10;95.40;;;;;;5059052;28;19909;-56
2022/10/20 00:44:48;;;;;;;;;;;16.10;95.30;;;;;;5058780;28;19908;-57
2022/10/20 00:47:33;;;;;;;;;;;16.10;95.30;;;;;;5058752;28;19908;-57
2022/10/20 00:50:04;;;;;;;;;;;16.10;95.30;;;;;;5058302;28;19917;-56
2022/10/20 00:52:29;;;;;;;;;;;16.10;95.90;;;;;;5059485;28;20277;-56
2022/10/20 00:54:55;;;;;;;;;;;16.00;95.90;;;;;;5058609;28;19915;-56
2022/10/20 00:57:20;;;;;;;;;;;16.00;95.70;;;;;;5058657;28;19943;-56
2022/10/20 00:59:46;;;;;;;;;;;16.00;95.40;;;;;;5058954;28;20086;-55
2022/10/20 01:02:12;;;;;;;;;;;16.00;95.70;;;;;;5058502;28;19908;-56
2022/10/20 01:04:37;;;;;;;;;;;16.00;96.10;;;;;;5058646;28;19977;-56
2022/10/20 01:07:03;;;;;;;;;;;16.00;96.00;;;;;;5058188;28;19916;-56
2022/10/20 01:09:29;;;;;;;;;;;15.90;96.00;;;;;;5058228;28;19928;-56
2022/10/20 01:12:12;;;;;;;;;;;15.90;95.50;;;;;;5058332;28;19916;-56
2022/10/20 01:14:41;;;;;;;;;;;15.90;95.50;;;;;;5058345;28;19948;-56
2022/10/20 01:17:06;;;;;;;;;;;15.90;95.60;;;;;;5058316;28;19909;-57
2022/10/20 01:19:32;;;;;;;;;;;16.00;96.20;;;;;;5058403;28;20379;-57
2022/10/20 01:22:07;;;;;;;;;;;15.90;96.20;;;;;;5058195;28;19932;-56
2022/10/20 01:24:44;;;;;;;;;;;15.90;96.20;;;;;;5057900;28;20387;-57
2022/10/20 01:27:25;;;;;;;;;;;15.90;96.50;;;;;;5058611;28;19909;-57
2022/10/20 01:30:01;;;;;;;;;;;15.90;97.20;;;;;;5057986;28;19913;-57
2022/10/20 01:32:39;;;;;;;;;;;15.80;97.80;;;;;;5057956;28;19917;-57
2022/10/20 01:35:14;;;;;;;;;;;15.80;97.70;;;;;;5057975;28;19944;-56
2022/10/20 01:37:39;;;;;;;;;;;15.80;97.80;;;;;;5058128;28;19909;-56
2022/10/20 01:40:09;;;;;;;;;;;15.90;97.90;;;;;;5057880;28;19932;-57
2022/10/20 01:42:38;;;;;;;;;;;15.80;98.10;;;;;;5058326;28;20008;-57
2022/10/20 01:45:04;;;;;;;;;;;15.80;98.60;;;;;;5057831;28;19917;-57
2022/10/20 01:47:31;;;;;;;;;;;15.70;99.30;;;;;;5057590;28;20372;-57
2022/10/20 01:49:57;;;;;;;;;;;15.50;99.60;;;;;;5057708;28;19944;-57
2022/10/20 01:52:23;;;;;;;;;;;15.40;99.90;;;;;;5058072;28;20435;-56
2022/10/20 01:54:49;;;;;;;;;;;15.30;99.90;;;;;;5058188;28;19958;-57
2022/10/20 01:57:17;;;;;;;;;;;15.20;99.90;;;;;;5057545;28;20288;-57
2022/10/20 01:59:52;;;;;;;;;;;15.20;99.90;;;;;;5057687;28;19909;-58
2022/10/20 02:02:25;;;;;;;;;;;15.10;99.90;;;;;;5058312;28;19958;-58
2022/10/20 02:04:54;;;;;;;;;;;15.10;99.90;;;;;;5057712;28;19909;-56
2022/10/20 02:07:25;;;;;;;;;;;15.10;99.90;;;;;;5057510;28;20058;-57
2022/10/20 02:09:52;;;;;;;;;;;15.10;99.90;;;;;;5057783;28;19921;-57
2022/10/20 02:12:24;;;;;;;;;;;15.10;99.90;;;;;;5058270;28;19952;-57
2022/10/20 02:14:49;;;;;;;;;;;15.10;99.90;;;;;;5057608;28;19909;-56
2022/10/20 02:17:17;;;;;;;;;;;15.10;99.80;;;;;;5057746;28;20418;-57
2022/10/20 02:19:44;;;;;;;;;;;15.10;99.30;;;;;;5057963;28;19909;-57
2022/10/20 02:22:11;;;;;;;;;;;15.00;99.20;;;;;;5057460;28;19909;-57
2022/10/20 02:24:37;;;;;;;;;;;14.90;98.90;;;;;;5057827;28;19961;-56
2022/10/20 02:27:07;;;;;;;;;;;14.90;98.80;;;;;;5060731;28;19916;-56
2022/10/20 02:29:37;;;;;;;;;;;14.90;98.80;;;;;;5061342;28;19913;-56
2022/10/20 02:32:02;;;;;;;;;;;14.90;98.70;;;;;;5061343;28;19995;-57
2022/10/20 02:34:28;;;;;;;;;;;14.90;98.80;;;;;;5061249;28;20088;-56
2022/10/20 02:36:54;;;;;;;;;;;14.90;98.40;;;;;;5061411;28;19908;-56
2022/10/20 02:39:20;;;;;;;;;;;14.90;98.40;;;;;;5061190;28;19915;-56
2022/10/20 02:41:45;;;;;;;;;;;14.90;98.30;;;;;;5061401;28;20003;-56
2022/10/20 02:44:11;;;;;;;;;;;14.90;98.20;;;;;;5061075;28;19909;-56
2022/10/20 02:46:36;;;;;;;;;;;14.90;98.10;;;;;;5061494;28;19908;-56
2022/10/20 02:49:02;;;;;;;;;;;14.90;98.30;;;;;;5061116;28;19920;-57
2022/10/20 02:51:28;;;;;;;;;;;14.80;97.90;;;;;;5061034;28;20320;-57
2022/10/20 02:53:53;;;;;;;;;;;14.80;98.00;;;;;;5060869;28;19909;-57
2022/10/20 02:56:19;;;;;;;;;;;14.80;97.50;;;;;;5060705;28;19909;-56
2022/10/20 02:58:45;;;;;;;;;;;14.80;97.50;;;;;;5061057;28;19909;-56
2022/10/20 03:01:10;;;;;;;;;;;14.80;97.70;;;;;;5060962;28;19916;-57
2022/10/20 03:03:36;;;;;;;;;;;14.80;97.70;;;;;;5061027;28;19916;-57
2022/10/20 03:06:08;;;;;;;;;;;14.70;97.20;;;;;;5060534;28;20305;-56
2022/10/20 03:08:34;;;;;;;;;;;14.70;96.90;;;;;;5060820;28;19909;-56
2022/10/20 03:10:59;;;;;;;;;;;14.70;96.80;;;;;;5061060;28;19931;-56
2022/10/20 03:13:25;;;;;;;;;;;14.60;97.00;;;;;;5060735;28;19955;-57
2022/10/20 03:15:51;;;;;;;;;;;14.60;97.00;;;;;;5060710;28;19915;-56
2022/10/20 03:18:16;;;;;;;;;;;14.50;96.90;;;;;;5060692;28;19909;-56
2022/10/20 03:20:42;;;;;;;;;;;14.50;97.20;;;;;;5060412;28;20395;-56
2022/10/20 03:23:08;;;;;;;;;;;14.50;97.10;;;;;;5060390;28;19909;-56
2022/10/20 03:25:33;;;;;;;;;;;14.40;97.20;;;;;;5060823;28;19916;-57
2022/10/20 03:27:59;;;;;;;;;;;14.40;96.80;;;;;;5060277;28;19909;-56
2022/10/20 03:30:25;;;;;;;;;;;14.30;96.60;;;;;;5060428;28;19913;-56
2022/10/20 03:32:50;;;;;;;;;;;14.30;96.50;;;;;;5060367;28;19915;-56
2022/10/20 03:35:16;;;;;;;;;;;14.20;96.90;;;;;;5060245;28;19916;-56
2022/10/20 03:37:42;;;;;;;;;;;14.20;97.20;;;;;;5060243;28;19948;-57
2022/10/20 03:40:07;;;;;;;;;;;14.10;97.00;;;;;;5060159;28;20380;-56
2022/10/20 03:42:33;;;;;;;;;;;14.10;96.80;;;;;;5060014;28;19909;-56
2022/10/20 03:44:59;;;;;;;;;;;14.00;96.80;;;;;;5060044;28;19944;-56
2022/10/20 03:47:24;;;;;;;;;;;13.90;96.20;;;;;;5060146;28;19909;-56
2022/10/20 03:49:50;;;;;;;;;;;13.90;96.20;;;;;;5060011;28;20391;-57
2022/10/20 03:52:15;;;;;;;;;;;13.80;96.60;;;;;;5060266;28;19913;-56
2022/10/20 03:54:41;;;;;;;;;;;13.80;96.50;;;;;;5060053;28;19944;-56
2022/10/20 03:57:07;;;;;;;;;;;13.70;96.20;;;;;;5060251;28;19912;-56
2022/10/20 03:59:32;;;;;;;;;;;13.70;96.60;;;;;;5059488;28;19916;-56
2022/10/20 04:01:58;;;;;;;;;;;13.60;96.70;;;;;;5059649;28;20105;-56
2022/10/20 04:04:23;;;;;;;;;;;13.50;96.40;;;;;;5060074;28;20035;-56
2022/10/20 04:06:49;;;;;;;;;;;13.50;96.20;;;;;;5059227;28;20416;-57
2022/10/20 04:09:15;;;;;;;;;;;13.40;96.60;;;;;;5059640;28;19917;-57
2022/10/20 04:11:40;;;;;;;;;;;13.40;96.70;;;;;;5059928;28;19909;-56
2022/10/20 04:14:06;;;;;;;;;;;13.30;96.70;;;;;;5059459;28;19909;-57
2022/10/20 04:16:31;;;;;;;;;;;13.20;96.70;;;;;;5059302;28;19939;-56
2022/10/20 04:18:57;;;;;;;;;;;13.00;97.00;;;;;;5059678;28;19917;-57
2022/10/20 04:21:24;;;;;;;;;;;12.90;97.10;;;;;;5059328;28;19936;-56
2022/10/20 04:23:50;;;;;;;;;;;12.80;96.90;;;;;;5058880;28;19916;-56
2022/10/20 04:26:15;;;;;;;;;;;12.70;97.00;;;;;;5059310;28;19909;-56
2022/10/20 04:28:41;;;;;;;;;;;12.70;97.10;;;;;;5059358;28;20269;-56
2022/10/20 04:31:07;;;;;;;;;;;12.70;96.80;;;;;;5058806;28;19908;-56
2022/10/20 04:33:33;;;;;;;;;;;12.70;96.60;;;;;;5058904;28;19909;-57
2022/10/20 04:35:59;;;;;;;;;;;12.70;96.70;;;;;;5059074;28;19948;-57
2022/10/20 04:38:25;;;;;;;;;;;12.70;96.80;;;;;;5058775;28;20329;-56
2022/10/20 04:40:57;;;;;;;;;;;12.70;96.90;;;;;;5058886;28;19909;-57
2022/10/20 04:43:23;;;;;;;;;;;12.70;97.00;;;;;;5058795;28;19935;-56
2022/10/20 04:45:48;;;;;;;;;;;12.60;96.90;;;;;;5058944;28;19916;-56
2022/10/20 04:48:15;;;;;;;;;;;12.60;96.90;;;;;;5058686;28;20280;-56
2022/10/20 04:50:40;;;;;;;;;;;12.60;96.80;;;;;;5058505;28;19935;-56
2022/10/20 04:53:07;;;;;;;;;;;12.50;96.80;;;;;;5058859;28;19908;-56
2022/10/20 04:55:32;;;;;;;;;;;12.50;96.90;;;;;;5058458;28;19908;-56
2022/10/20 04:57:58;;;;;;;;;;;12.50;96.70;;;;;;5058726;28;19915;-56
2022/10/20 05:00:23;;;;;;;;;;;12.50;96.70;;;;;;5058673;28;19909;-59
2022/10/20 05:02:49;;;;;;;;;;;12.50;97.20;;;;;;5058446;28;19915;-56
2022/10/20 05:05:15;;;;;;;;;;;12.40;96.80;;;;;;5058446;28;19913;-54
2022/10/20 05:07:40;;;;;;;;;;;12.40;96.80;;;;;;5058748;28;20071;-56
2022/10/20 05:10:06;;;;;;;;;;;12.40;96.80;;;;;;5058408;28;19924;-56
2022/10/20 05:12:32;;;;;;;;;;;12.40;96.70;;;;;;5058322;28;19916;-56
2022/10/20 05:14:57;;;;;;;;;;;12.40;96.60;;;;;;5058158;28;20291;-56
2022/10/20 05:17:23;;;;;;;;;;;12.40;97.10;;;;;;5058444;28;19909;-56
2022/10/20 05:19:48;;;;;;;;;;;12.40;97.20;;;;;;5058105;28;19913;-57
2022/10/20 05:22:14;;;;;;;;;;;12.40;97.40;;;;;;5058587;28;19996;-56
2022/10/20 05:24:40;;;;;;;;;;;12.40;97.10;;;;;;5058085;28;20345;-57
2022/10/20 05:27:05;;;;;;;;;;;12.40;96.80;;;;;;5058061;28;19909;-56
2022/10/20 05:29:31;;;;;;;;;;;12.40;96.70;;;;;;5058094;28;20412;-56
2022/10/20 05:31:56;;;;;;;;;;;12.40;96.40;;;;;;5058385;28;19909;-56
2022/10/20 05:34:22;;;;;;;;;;;12.30;96.50;;;;;;5057963;28;19909;-55
2022/10/20 05:36:48;;;;;;;;;;;12.30;96.30;;;;;;5057995;28;19909;-57
2022/10/20 05:39:13;;;;;;;;;;;12.30;96.50;;;;;;5057831;28;20449;-56
2022/10/20 05:41:39;;;;;;;;;;;12.30;96.60;;;;;;5058273;28;19967;-56
2022/10/20 05:44:07;;;;;;;;;;;12.30;96.40;;;;;;5057805;28;19999;-56
2022/10/20 05:46:36;;;;;;;;;;;12.20;96.30;;;;;;5057612;28;19909;-56
2022/10/20 05:49:02;;;;;;;;;;;12.20;96.70;;;;;;5057554;28;19967;-56
2022/10/20 05:51:33;;;;;;;;;;;12.20;96.40;;;;;;5057390;28;19916;-57
2022/10/20 05:53:59;;;;;;;;;;;12.20;96.30;;;;;;5057894;28;19916;-56
2022/10/20 05:56:25;;;;;;;;;;;12.20;96.40;;;;;;5057734;28;19908;-56
2022/10/20 05:58:50;;;;;;;;;;;12.10;96.60;;;;;;5057961;28;19954;-56
2022/10/20 06:01:20;;;;;;;;;;;12.10;96.60;;;;;;5059708;28;19908;-56
2022/10/20 06:03:48;;;;;;;;;;;12.10;96.60;;;;;;5062138;28;19908;-56
2022/10/20 06:06:14;;;;;;;;;;;12.10;96.30;;;;;;5061637;28;19917;-55
2022/10/20 06:08:39;;;;;;;;;;;12.10;96.70;;;;;;5061678;28;19916;-55
2022/10/20 06:11:06;;;;;;;;;;;12.00;96.50;;;;;;5062093;28;19909;-56
2022/10/20 06:13:32;;;;;;;;;;;12.00;96.70;;;;;;5061550;28;20375;-56
2022/10/20 06:16:06;;;;;;;;;;;12.00;96.90;;;;;;5061637;28;19909;-55
2022/10/20 06:18:31;;;;;;;;;;;12.10;97.20;;;;;;5061789;28;20421;-56
2022/10/20 06:20:58;;;;;;;;;;;12.10;96.80;;;;;;5061538;28;20002;-56
2022/10/20 06:23:24;;;;;;;;;;;12.20;97.00;;;;;;5061427;28;19995;-56
2022/10/20 06:25:49;;;;;;;;;;;12.10;97.30;;;;;;5061533;28;19936;-56
2022/10/20 06:28:15;;;;;;;;;;;12.10;97.10;;;;;;5061222;28;20000;-56
2022/10/20 06:30:41;;;;;;;;;;;12.10;97.20;;;;;;5061249;28;19916;-56
2022/10/20 06:33:07;;;;;;;;;;;12.20;97.10;;;;;;5061617;28;19908;-56
2022/10/20 06:35:32;;;;;;;;;;;12.20;97.10;;;;;;5061167;28;19944;-56
2022/10/20 06:37:58;;;;;;;;;;;12.20;96.90;;;;;;5061392;28;19909;-56
2022/10/20 06:40:23;;;;;;;;;;;12.20;97.00;;;;;;5061231;28;19913;-56
2022/10/20 06:42:49;;;;;;;;;;;12.10;96.90;;;;;;5061329;28;19913;-56
2022/10/20 06:45:14;;;;;;;;;;;12.10;96.60;;;;;;5061383;28;19916;-56
2022/10/20 06:47:40;;;;;;;;;;;12.10;96.60;;;;;;5060936;28;19909;-56
2022/10/20 06:50:06;;;;;;;;;;;12.10;97.20;;;;;;5060898;28;20371;-56
2022/10/20 06:52:31;;;;;;;;;;;12.10;97.10;;;;;;5061085;28;19913;-56
2022/10/20 06:54:57;;;;;;;;;;;12.10;97.00;;;;;;5061190;28;19912;-56
2022/10/20 06:57:23;;;;;;;;;;;12.20;97.40;;;;;;5060776;28;19915;-56
2022/10/20 06:59:48;;;;;;;;;;;12.20;97.20;;;;;;5060911;28;19931;-56
2022/10/20 07:02:14;;;;;;;;;;;12.20;96.90;;;;;;5060771;28;19975;-56
2022/10/20 07:04:39;;;;;;;;;;;12.20;96.90;;;;;;5060735;28;20291;-56
2022/10/20 07:07:05;;;;;;;;;;;12.20;97.10;;;;;;5060326;28;19939;-56
2022/10/20 07:09:31;;;;;;;;;;;12.20;97.30;;;;;;5061026;28;20359;-56
2022/10/20 07:11:56;;;;;;;;;;;12.20;96.90;;;;;;5060118;28;19917;-56
2022/10/20 07:14:22;;;;;;;;;;;12.20;97.00;;;;;;5060483;28;19944;-56
2022/10/20 07:16:47;;;;;;;;;;;12.30;97.40;;;;;;5060519;28;19916;-56
2022/10/20 07:19:13;;;;;;;;;;;12.30;97.20;;;;;;5060856;28;19909;-56
2022/10/20 07:21:39;;;;;;;;;;;12.30;97.30;;;;;;5060558;28;19928;-56
2022/10/20 07:24:06;;;;;;;;;;;12.30;97.60;;;;;;5060528;28;19939;-56
2022/10/20 07:26:33;;;;;;;;;;;12.40;97.50;;;;;;5060262;28;19913;-56
2022/10/20 07:28:59;;;;;;;;;;;12.40;97.50;;;;;;5060328;28;20314;-56
2022/10/20 07:31:25;;;;;;;;;;;12.40;97.80;;;;;;5060258;28;19909;-56
2022/10/20 07:33:50;;;;;;;;;;;12.50;97.90;;;;;;5060344;28;20336;-56
2022/10/20 07:36:17;;;;;;;;;;;12.60;98.30;;;;;;5060244;28;20276;-55
2022/10/20 07:38:43;;;;;;;;;;;12.60;97.80;;;;;;5060234;28;19935;-53
2022/10/20 07:41:09;;;;;;;;;;;12.60;97.90;;;;;;5060045;28;20388;-56
2022/10/20 07:43:35;;;;;;;;;;;12.70;97.80;;;;;;5059883;28;19940;-56
2022/10/20 07:46:01;;;;;;;;;;;12.70;97.60;;;;;;5059796;28;19909;-56
2022/10/20 07:48:27;;;;;;;;;;;12.80;97.50;;;;;;5060223;28;19915;-56
2022/10/20 07:50:52;;;;;;;;;;;12.80;97.80;;;;;;5059705;28;20015;-56
2022/10/20 07:53:18;;;;;;;;;;;12.90;98.10;;;;;;5059962;28;19909;-56
2022/10/20 07:55:44;;;;;;;;;;;12.90;98.00;;;;;;5059711;28;20357;-56
2022/10/20 07:58:10;;;;;;;;;;;13.00;97.80;;;;;;5059622;28;19958;-54
2022/10/20 08:00:36;;;;;;;;;;;13.00;98.10;;;;;;5059901;28;19955;-56
2022/10/20 08:03:02;;;;;;;;;;;13.10;98.40;;;;;;5059807;28;19908;-54
2022/10/20 08:05:28;;;;;;;;;;;13.20;98.00;;;;;;5059550;28;20035;-55
2022/10/20 08:07:54;;;;;;;;;;;13.20;98.20;;;;;;5059673;28;19909;-56
2022/10/20 08:10:19;;;;;;;;;;;13.30;97.80;;;;;;5059450;28;19928;-56
2022/10/20 08:12:45;;;;;;;;;;;13.40;97.80;;;;;;5059408;28;20400;-56
2022/10/20 08:15:11;;;;;;;;;;;13.40;98.10;;;;;;5059868;28;19913;-54
2022/10/20 08:17:37;;;;;;;;;;;13.50;98.90;;;;;;5059506;28;19916;-56
2022/10/20 08:20:03;;;;;;;;;;;13.60;98.80;;;;;;5059493;28;19967;-56
2022/10/20 08:22:28;;;;;;;;;;;13.70;98.40;;;;;;5059405;28;19995;-56
2022/10/20 08:24:54;;;;;;;;;;;13.80;98.60;;;;;;5058809;28;19974;-56
2022/10/20 08:27:20;;;;;;;;;;;14.00;98.70;;;;;;5059351;28;19915;-56
2022/10/20 08:29:45;;;;;;;;;;;14.20;99.10;;;;;;5059101;28;19995;-56
2022/10/20 08:32:13;;;;;;;;;;;14.40;99.40;;;;;;5058968;28;19970;-55
2022/10/20 08:34:39;;;;;;;;;;;14.70;99.50;;;;;;5059015;28;19909;-55
2022/10/20 08:37:04;;;;;;;;;;;14.90;99.80;;;;;;5058884;28;19909;-55
2022/10/20 08:39:30;;;;;;;;;;;15.20;99.50;;;;;;5058900;28;19916;-57
2022/10/20 08:41:56;;;;;;;;;;;15.50;99.70;;;;;;5059049;28;19994;-55
2022/10/20 08:44:24;;;;;;;;;;;15.70;99.30;;;;;;5059118;28;19974;-55
2022/10/20 08:46:49;;;;;;;;;;;15.90;98.90;;;;;;5058954;28;20301;-56
2022/10/20 08:49:23;;;;;;;;;;;16.00;99.00;;;;;;5058902;28;19979;-56
2022/10/20 08:51:49;;;;;;;;;;;16.30;99.10;;;;;;5058624;28;19978;-55
2022/10/20 08:54:15;;;;;;;;;;;16.70;99.30;;;;;;5058891;28;19912;-55
2022/10/20 08:56:43;;;;;;;;;;;16.90;98.50;;;;;;5058784;28;20004;-54
2022/10/20 08:59:34;;;;;;;;;;;17.00;98.30;;;;;;5058457;28;19934;-56
2022/10/20 09:02:01;;;;;;;;;;;17.00;97.70;;;;;;5058299;28;19944;-56
2022/10/20 09:04:36;;;;;;;;;;;17.20;97.50;;;;;;5058539;28;19909;-56
2022/10/20 09:07:07;;;;;;;;;;;17.30;97.60;;;;;;5057994;28;19917;-57
2022/10/20 09:09:33;;;;;;;;;;;17.20;96.70;;;;;;5058508;28;20365;-54
2022/10/20 09:12:05;;;;;;;;;;;17.30;97.90;;;;;;5058492;28;19915;-56
2022/10/20 09:14:34;;;;;;;;;;;17.30;96.10;;;;;;5056550;28;20146;-53
2022/10/20 09:17:00;;;;;;;;;;;17.10;95.80;;;;;;5058325;28;19939;-56
2022/10/20 09:19:26;;;;;;;;;;;17.20;96.80;;;;;;5058389;28;20392;-56
2022/10/20 09:21:53;;;;;;;;;;;17.20;96.60;;;;;;5058118;28;19909;-56
2022/10/20 09:24:21;;;;;;;;;;;17.30;96.20;;;;;;5058250;28;19913;-55
2022/10/20 09:26:47;;;;;;;;;;;17.30;96.20;;;;;;5058269;28;19908;-54
2022/10/20 09:29:15;;;;;;;;;;;17.30;96.50;;;;;;5058420;28;19913;-56
2022/10/20 09:31:45;;;;;;;;;;;17.30;96.70;;;;;;5058177;28;19908;-57
2022/10/20 09:34:30;;;;;;;;;;;17.90;98.00;;;;;;5057851;28;20391;-57
2022/10/20 09:36:58;;;;;;;;;;;18.80;97.60;;;;;;5058217;28;20111;-58
2022/10/20 09:39:28;;;;;;;;;;;19.60;97.50;;;;;;5058155;28;19931;-57
2022/10/20 09:42:11;;;;;;;;;;;20.00;94.00;;;;;;5057909;28;19909;-57
2022/10/20 09:44:46;;;;;;;;;;;19.80;93.60;;;;;;5057880;28;19909;-57
2022/10/20 09:47:13;;;;;;;;;;;19.50;92.50;;;;;;5058080;28;19908;-57
2022/10/20 09:49:39;;;;;;;;;;;20.00;92.40;;;;;;5057690;28;19920;-57
2022/10/20 09:52:14;;;;;;;;;;;20.70;93.20;;;;;;5058098;28;20003;-57
2022/10/20 09:54:40;;;;;;;;;;;20.90;87.90;;;;;;5058402;28;19948;-57
2022/10/20 09:57:07;;;;;;;;;;;21.00;92.40;;;;;;5056892;28;19909;-57
2022/10/20 09:59:35;;;;;;;;;;;21.50;85.60;;;;;;5057936;28;19908;-57
2022/10/20 10:02:02;;;;;;;;;;;21.50;89.60;;;;;;5057746;28;19916;-56
2022/10/20 10:04:30;;;;;;;;;;;21.30;87.20;;;;;;5057894;28;20369;-56
2022/10/20 10:06:56;;;;;;;;;;;21.70;90.00;;;;;;5057860;28;20475;-57
2022/10/20 10:09:26;;;;;;;;;;;22.00;84.10;;;;;;5057803;28;19959;-57
2022/10/20 10:11:57;;;;;;;;;;;22.20;85.20;;;;;;5058169;28;19909;-57
2022/10/20 10:14:22;;;;;;;;;;;22.70;89.10;;;;;;5057853;28;19909;-57
2022/10/20 10:16:48;;;;;;;;;;;23.10;82.80;;;;;;5057866;28;19944;-57
2022/10/20 10:19:18;;;;;;;;;;;23.60;88.90;;;;;;5057991;28;20396;-57
2022/10/20 10:21:50;;;;;;;;;;;23.60;78.10;;;;;;5057840;28;19916;-57
2022/10/20 10:24:31;;;;;;;;;;;24.10;79.30;;;;;;5058225;28;20007;-57
2022/10/20 10:26:56;;;;;;;;;;;24.10;79.70;;;;;;5057955;28;20307;-57
2022/10/20 10:29:23;;;;;;;;;;;24.40;78.80;;;;;;5057682;28;19913;-58
2022/10/20 10:31:51;;;;;;;;;;;24.20;70.20;;;;;;5057873;28;19913;-57
2022/10/20 10:34:16;;;;;;;;;;;24.70;75.40;;;;;;5057752;28;19934;-57
2022/10/20 10:36:42;;;;;;;;;;;24.10;70.60;;;;;;5057540;28;19944;-57
2022/10/20 10:39:12;;;;;;;;;;;24.00;79.40;;;;;;5057714;28;19909;-58
2022/10/20 10:41:56;;;;;;;;;;;25.00;73.80;;;;;;5057329;28;19909;-57
2022/10/20 10:44:41;;;;;;;;;;;25.20;72.50;;;;;;5057293;28;19909;-57
2022/10/20 10:47:13;;;;;;;;;;;25.00;75.20;;;;;;5059003;28;19916;-58
2022/10/20 10:49:49;;;;;;;;;;;25.40;64.20;;;;;;5060445;28;19912;-57
2022/10/20 10:52:20;;;;;;;;;;;25.30;71.50;;;;;;5061337;28;19932;-58
2022/10/20 10:55:09;;;;;;;;;;;26.20;62.30;;;;;;5061228;28;19913;-58
2022/10/20 10:57:35;;;;;;;;;;;26.00;76.30;;;;;;5061493;28;19913;-58
2022/10/20 11:00:06;;;;;;;;;;;26.70;62.90;;;;;;5060800;28;19916;-58
2022/10/20 11:02:40;;;;;;;;;;;27.70;76.10;;;;;;5060909;28;19913;-59
2022/10/20 11:05:15;;;;;;;;;;;28.10;60.60;;;;;;5060489;28;19916;-59
2022/10/20 11:07:44;;;;;;;;;;;27.70;65.80;;;;;;5060844;28;19917;-58
2022/10/20 11:10:10;;;;;;;;;;;26.50;58.00;;;;;;5060105;28;19958;-57
2022/10/20 11:12:52;;;;;;;;;;;26.60;61.90;;;;;;5060117;28;19909;-58
2022/10/20 11:15:30;;;;;;;;;;;25.50;60.80;;;;;;5060274;28;19931;-58
2022/10/20 11:17:56;;;;;;;;;;;25.20;64.80;;;;;;5060405;28;20441;-58
2022/10/20 11:20:22;;;;;;;;;;;25.60;65.90;;;;;;5060842;28;19995;-58
2022/10/20 11:22:56;;;;;;;;;;;26.20;64.70;;;;;;5060297;28;19909;-58
2022/10/20 11:25:30;;;;;;;;;;;26.00;62.40;;;;;;5060400;28;19909;-58
2022/10/20 11:27:57;;;;;;;;;;;26.00;57.90;;;;;;5059986;28;19909;-59
2022/10/20 11:30:26;;;;;;;;;;;26.50;68.90;;;;;;5060030;28;19917;-59
2022/10/20 11:32:58;;;;;;;;;;;27.10;58.10;;;;;;5059902;28;20387;-59
2022/10/20 11:35:43;;;;;;;;;;;27.80;61.90;;;;;;5060043;28;19908;-59
2022/10/20 11:38:16;;;;;;;;;;;27.80;55.90;;;;;;5060440;28;19916;-59
2022/10/20 11:40:51;;;;;;;;;;;28.50;60.80;;;;;;5060105;28;19908;-59
2022/10/20 11:43:23;;;;;;;;;;;29.10;67.50;;;;;;5060279;28;19916;-59
2022/10/20 11:45:53;;;;;;;;;;;29.60;56.70;;;;;;5059898;28;20386;-59
2022/10/20 11:48:26;;;;;;;;;;;29.80;58.40;;;;;;5059967;28;19909;-59
2022/10/20 11:51:02;;;;;;;;;;;29.00;54.20;;;;;;5059843;28;19913;-59
2022/10/20 11:53:31;;;;;;;;;;;29.20;55.10;;;;;;5059910;28;20309;-59
2022/10/20 11:56:21;;;;;;;;;;;27.70;50.40;;;;;;5059743;28;19992;-58
2022/10/20 11:58:59;;;;;;;;;;;27.90;55.70;;;;;;5058945;28;20296;-59
2022/10/20 12:01:37;;;;;;;;;;;27.90;53.50;;;;;;5060399;28;19909;-59
2022/10/20 12:04:20;;;;;;;;;;;27.70;61.60;;;;;;5059665;28;19995;-59
2022/10/20 12:06:46;;;;;;;;;;;28.20;56.10;;;;;;5059619;28;19921;-58
2022/10/20 12:09:21;;;;;;;;;;;27.70;52.60;;;;;;5060042;28;19913;-58
2022/10/20 12:11:56;;;;;;;;;;;27.50;52.80;;;;;;5059903;28;19909;-58
2022/10/20 12:14:21;;;;;;;;;;;27.20;50.40;;;;;;5059621;28;19916;-59
2022/10/20 12:16:53;;;;;;;;;;;28.10;54.80;;;;;;5059930;28;19952;-59
2022/10/20 12:19:22;;;;;;;;;;;28.80;66.60;;;;;;5059617;28;19909;-59
2022/10/20 12:22:06;;;;;;;;;;;28.60;48.00;;;;;;5059905;28;19909;-59
2022/10/20 12:24:35;;;;;;;;;;;27.80;56.70;;;;;;5059516;28;19908;-59
2022/10/20 12:27:04;;;;;;;;;;;27.50;49.20;;;;;;5059637;28;19909;-59
2022/10/20 12:29:29;;;;;;;;;;;27.40;50.90;;;;;;5059260;28;19913;-59
2022/10/20 12:32:24;;;;;;;;;;;27.10;51.70;;;;;;5059608;28;19916;-58
2022/10/20 12:34:58;;;;;;;;;;;27.20;50.40;;;;;;5058710;28;19941;-59
2022/10/20 12:37:23;;;;;;;;;;;27.70;51.70;;;;;;5059456;28;20368;-58
2022/10/20 12:39:53;;;;;;;;;;;27.70;49.20;;;;;;5059546;28;19913;-59
2022/10/20 12:42:18;;;;;;;;;;;26.50;48.20;;;;;;5059405;28;20006;-58
2022/10/20 12:44:45;;;;;;;;;;;26.70;51.70;;;;;;5059170;28;20368;-58
2022/10/20 12:47:15;;;;;;;;;;;27.50;55.70;;;;;;5059081;28;19908;-58
2022/10/20 12:49:49;;;;;;;;;;;27.20;52.80;;;;;;5059050;28;19993;-58
2022/10/20 12:52:20;;;;;;;;;;;26.50;54.70;;;;;;5059185;28;19909;-59
2022/10/20 12:54:52;;;;;;;;;;;26.20;52.30;;;;;;5058929;28;19909;-59
2022/10/20 12:57:40;;;;;;;;;;;26.40;54.10;;;;;;5059151;28;19908;-58
2022/10/20 13:00:26;;;;;;;;;;;26.50;54.40;;;;;;5058913;28;19980;-59
2022/10/20 13:02:58;;;;;;;;;;;27.30;54.60;;;;;;5058776;28;19916;-58
2022/10/20 13:05:26;;;;;;;;;;;27.80;58.60;;;;;;5058469;28;19917;-59
2022/10/20 13:07:52;;;;;;;;;;;28.10;49.40;;;;;;5058749;28;19916;-58
2022/10/20 13:10:27;;;;;;;;;;;26.90;50.10;;;;;;5057950;28;19912;-58
2022/10/20 13:13:15;;;;;;;;;;;27.20;58.40;;;;;;5058095;28;19998;-58
2022/10/20 13:15:43;;;;;;;;;;;27.20;55.00;;;;;;5057931;28;19908;-59
2022/10/20 13:18:12;;;;;;;;;;;27.40;52.10;;;;;;5058297;28;19913;-58
2022/10/20 13:20:41;;;;;;;;;;;27.50;55.50;;;;;;5058230;28;19909;-58
2022/10/20 13:23:14;;;;;;;;;;;28.20;56.50;;;;;;5058098;28;20360;-58
2022/10/20 13:25:45;;;;;;;;;;;28.50;49.30;;;;;;5057976;28;19908;-59
2022/10/20 13:28:19;;;;;;;;;;;28.30;54.00;;;;;;5057938;28;19948;-59
2022/10/20 13:31:03;;;;;;;;;;;28.50;48.40;;;;;;5057771;28;19966;-58
2022/10/20 13:33:33;;;;;;;;;;;27.50;51.10;;;;;;5058125;28;19919;-58
2022/10/20 13:36:11;;;;;;;;;;;26.70;54.00;;;;;;5058018;28;20401;-58
2022/10/20 13:38:46;;;;;;;;;;;27.00;51.80;;;;;;5057898;28;19959;-58
2022/10/20 13:41:15;;;;;;;;;;;27.30;57.70;;;;;;5057612;28;19909;-59
2022/10/20 13:44:00;;;;;;;;;;;27.10;47.40;;;;;;5056535;28;19931;-59
2022/10/20 13:46:33;;;;;;;;;;;26.90;52.10;;;;;;5057761;28;19909;-59
2022/10/20 13:49:09;;;;;;;;;;;27.00;52.80;;;;;;5058093;28;20421;-58
2022/10/20 13:51:47;;;;;;;;;;;27.20;55.00;;;;;;5058006;28;20280;-58
2022/10/20 13:54:18;;;;;;;;;;;27.50;54.90;;;;;;5057881;28;19909;-57
2022/10/20 13:56:47;;;;;;;;;;;27.90;53.10;;;;;;5057587;28;20446;-57
2022/10/20 13:59:12;;;;;;;;;;;27.90;54.70;;;;;;5057686;28;19948;-58
2022/10/20 14:01:38;;;;;;;;;;;27.80;51.40;;;;;;5057806;28;19909;-58
2022/10/20 14:04:27;;;;;;;;;;;27.80;50.80;;;;;;5057597;28;19963;-57
2022/10/20 14:06:53;;;;;;;;;;;27.70;51.60;;;;;;5056598;28;19944;-57
2022/10/20 14:09:20;;;;;;;;;;;26.80;53.30;;;;;;5057903;28;20161;-58
2022/10/20 14:11:48;;;;;;;;;;;26.80;52.90;;;;;;5057474;28;19989;-58
2022/10/20 14:14:19;;;;;;;;;;;26.50;52.60;;;;;;5057657;28;19909;-58
2022/10/20 14:16:53;;;;;;;;;;;26.30;54.00;;;;;;5057486;28;19945;-57
2022/10/20 14:19:20;;;;;;;;;;;26.10;53.40;;;;;;5057563;28;20360;-57
2022/10/20 14:21:49;;;;;;;;;;;25.90;54.50;;;;;;5058204;28;19909;-57
2022/10/20 14:24:23;;;;;;;;;;;25.50;55.30;;;;;;5061321;28;19909;-58